UKP041 EGBB-EGBB
Flight info
| Callsign | UKP041 |
|---|---|
| Flight time | 0h 4m |
| Altitude | 3000 |
| Route | VFR POLICE OPS |
| Aircraft | EC35/L-VGD/N |
Departure
| Time | 2026-04-30 21:21 |
|---|---|
| Airport | Birmingham Airport (EGBB) |
Arrival
| Time | 2026-04-30 21:26 |
|---|---|
| Airport | Birmingham Airport (EGBB) |
| Time | Latitude | Longitude | Altitude | Speed | Heading |
|---|---|---|---|---|---|
| 2026-04-30 21:15 | 52.44941 | -1.74682 | 323 ft | 0 kts | 285° |
| 2026-04-30 21:19 | 52.44943 | -1.74687 | 328 ft | 0 kts | 281° |
| 2026-04-30 21:19 | 52.44946 | -1.74691 | 329 ft | 1 kts | 282° |
| 2026-04-30 21:19 | 52.44946 | -1.74697 | 331 ft | 0 kts | 281° |
| 2026-04-30 21:20 | 52.44947 | -1.74696 | 335 ft | 0 kts | 281° |
| 2026-04-30 21:20 | 52.44948 | -1.74695 | 335 ft | 0 kts | 281° |
| 2026-04-30 21:20 | 52.44948 | -1.74696 | 334 ft | 0 kts | 279° |
| 2026-04-30 21:20 | 52.44942 | -1.74692 | 354 ft | 12 kts | 109° |
| 2026-04-30 21:21 | 52.44835 | -1.74546 | 473 ft | 31 kts | 149° |
| 2026-04-30 21:21 | 52.44548 | -1.74500 | 657 ft | 54 kts | 176° |
| 2026-04-30 21:21 | 52.43851 | -1.75671 | 953 ft | 94 kts | 249° |
| 2026-04-30 21:22 | 52.43901 | -1.76778 | 1074 ft | 98 kts | 289° |
| 2026-04-30 21:22 | 52.45456 | -1.79484 | 1219 ft | 134 kts | 315° |
| 2026-04-30 21:23 | 52.46135 | -1.80527 | 1213 ft | 135 kts | 316° |
| 2026-04-30 21:23 | 52.46819 | -1.81574 | 1219 ft | 136 kts | 316° |
| 2026-04-30 21:23 | 52.48201 | -1.83701 | 1220 ft | 136 kts | 316° |
| 2026-04-30 21:24 | 52.48890 | -1.84763 | 1220 ft | 136 kts | 316° |
| 2026-04-30 21:24 | 52.49577 | -1.85820 | 1257 ft | 135 kts | 316° |
| 2026-04-30 21:24 | 52.50266 | -1.86877 | 1292 ft | 138 kts | 317° |
| 2026-04-30 21:24 | 52.50970 | -1.87961 | 1296 ft | 139 kts | 316° |
| 2026-04-30 21:25 | 52.52625 | -1.89407 | 1310 ft | 136 kts | 6° |
| 2026-04-30 21:25 | 52.53532 | -1.89169 | 1274 ft | 125 kts | 20° |
| 2026-04-30 21:25 | 52.54288 | -1.88823 | 1245 ft | 98 kts | 39° |
| 2026-04-30 21:26 | 52.54522 | -1.87671 | 1219 ft | 48 kts | 141° |
| 2026-04-30 21:26 | 52.54189 | -1.87613 | 1217 ft | 60 kts | 204° |
| 2026-04-30 21:27 | 52.54623 | -1.88142 | 1219 ft | 38 kts | 92° |
| 2026-04-30 21:27 | 52.54610 | -1.87783 | 1216 ft | 30 kts | 121° |
| 2026-04-30 21:27 | 52.54460 | -1.87564 | 1215 ft | 34 kts | 172° |
| 2026-04-30 21:28 | 52.54175 | -1.88516 | 1207 ft | 60 kts | 214° |
| 2026-04-30 21:28 | 52.53818 | -1.89071 | 1217 ft | 78 kts | 205° |
| 2026-04-30 21:28 | 52.52956 | -1.90041 | 1216 ft | 73 kts | 199° |
| 2026-04-30 21:29 | 52.52535 | -1.90491 | 1225 ft | 70 kts | 205° |
| 2026-04-30 21:29 | 52.52808 | -1.91620 | 1218 ft | 59 kts | 86° |
| 2026-04-30 21:30 | 52.52492 | -1.90844 | 1217 ft | 39 kts | 140° |
| 2026-04-30 21:31 | 52.52197 | -1.91943 | 1376 ft | 75 kts | 315° |
| 2026-04-30 21:31 | 52.53081 | -1.92102 | 1481 ft | 52 kts | 76° |
| 2026-04-30 21:32 | 52.53104 | -1.91193 | 1426 ft | 44 kts | 131° |
| 2026-04-30 21:32 | 52.52899 | -1.90924 | 1324 ft | 46 kts | 151° |
| 2026-04-30 21:32 | 52.52572 | -1.90817 | 1167 ft | 51 kts | 169° |
| 2026-04-30 21:32 | 52.52206 | -1.90844 | 1122 ft | 57 kts | 190° |
| 2026-04-30 21:33 | 52.51989 | -1.91424 | 1125 ft | 78 kts | 276° |
| 2026-04-30 21:33 | 52.52721 | -1.91730 | 1128 ft | 56 kts | 92° |
| 2026-04-30 21:33 | 52.52541 | -1.91266 | 1127 ft | 52 kts | 160° |
| 2026-04-30 21:34 | 52.52200 | -1.91507 | 1129 ft | 65 kts | 223° |
| 2026-04-30 21:34 | 52.52580 | -1.92848 | 1127 ft | 76 kts | 4° |
| 2026-04-30 21:34 | 52.52937 | -1.92479 | 1128 ft | 57 kts | 85° |
| 2026-04-30 21:35 | 52.52925 | -1.91864 | 1128 ft | 53 kts | 114° |
| 2026-04-30 21:35 | 52.52658 | -1.91484 | 1130 ft | 52 kts | 154° |
| 2026-04-30 21:35 | 52.52403 | -1.91872 | 1123 ft | 77 kts | 276° |
| 2026-04-30 21:35 | 52.52807 | -1.91975 | 1130 ft | 62 kts | 71° |
| 2026-04-30 21:36 | 52.52712 | -1.91458 | 1133 ft | 50 kts | 146° |
| 2026-04-30 21:36 | 52.52397 | -1.91654 | 1126 ft | 69 kts | 245° |
| 2026-04-30 21:37 | 52.52388 | -1.91757 | 1121 ft | 73 kts | 260° |
| 2026-04-30 21:37 | 52.52741 | -1.91887 | 1128 ft | 58 kts | 86° |
| 2026-04-30 21:37 | 52.52490 | -1.91789 | 1128 ft | 64 kts | 224° |
| 2026-04-30 21:37 | 52.52481 | -1.92591 | 1131 ft | 73 kts | 267° |
| 2026-04-30 21:38 | 52.52288 | -1.93306 | 1109 ft | 77 kts | 209° |
| 2026-04-30 21:38 | 52.51722 | -1.93505 | 1078 ft | 96 kts | 166° |
| 2026-04-30 21:38 | 52.51132 | -1.92865 | 1068 ft | 108 kts | 121° |
| 2026-04-30 21:38 | 52.50870 | -1.91826 | 1194 ft | 93 kts | 120° |
| 2026-04-30 21:39 | 52.50360 | -1.91150 | 1242 ft | 100 kts | 154° |
| 2026-04-30 21:39 | 52.49680 | -1.90881 | 1264 ft | 98 kts | 159° |
| 2026-04-30 21:39 | 52.49155 | -1.90244 | 1281 ft | 89 kts | 135° |
| 2026-04-30 21:39 | 52.48771 | -1.89585 | 1282 ft | 70 kts | 139° |
| 2026-04-30 21:40 | 52.48435 | -1.89889 | 1269 ft | 97 kts | 272° |
| 2026-04-30 21:40 | 52.48808 | -1.90047 | 1272 ft | 56 kts | 102° |
| 2026-04-30 21:40 | 52.48781 | -1.89405 | 1278 ft | 67 kts | 83° |
| 2026-04-30 21:40 | 52.49189 | -1.88955 | 1286 ft | 77 kts | 19° |
| 2026-04-30 21:41 | 52.49711 | -1.88903 | 1280 ft | 73 kts | 18° |
| 2026-04-30 21:41 | 52.50170 | -1.88652 | 1280 ft | 69 kts | 40° |
| 2026-04-30 21:41 | 52.50593 | -1.88286 | 1279 ft | 66 kts | 49° |
| 2026-04-30 21:41 | 52.50857 | -1.87744 | 1278 ft | 58 kts | 77° |
| 2026-04-30 21:42 | 52.50999 | -1.87136 | 1275 ft | 59 kts | 79° |
| 2026-04-30 21:42 | 52.51413 | -1.86814 | 1280 ft | 79 kts | 1° |
| 2026-04-30 21:42 | 52.51880 | -1.87297 | 1280 ft | 81 kts | 310° |
| 2026-04-30 21:42 | 52.52216 | -1.88034 | 1279 ft | 82 kts | 297° |
| 2026-04-30 21:43 | 52.52513 | -1.88860 | 1274 ft | 90 kts | 297° |
| 2026-04-30 21:43 | 52.52877 | -1.89696 | 1278 ft | 90 kts | 316° |
| 2026-04-30 21:43 | 52.53372 | -1.90326 | 1277 ft | 90 kts | 324° |
| 2026-04-30 21:43 | 52.53833 | -1.91005 | 1278 ft | 90 kts | 316° |
| 2026-04-30 21:44 | 52.54313 | -1.91683 | 1280 ft | 91 kts | 325° |
| 2026-04-30 21:44 | 52.54831 | -1.92263 | 1280 ft | 92 kts | 324° |
| 2026-04-30 21:44 | 52.55181 | -1.93104 | 1281 ft | 88 kts | 274° |
| 2026-04-30 21:44 | 52.54991 | -1.93767 | 1269 ft | 61 kts | 155° |
| 2026-04-30 21:45 | 52.55173 | -1.93309 | 1280 ft | 85 kts | 6° |
| 2026-04-30 21:45 | 52.55545 | -1.93853 | 1272 ft | 65 kts | 237° |
| 2026-04-30 21:45 | 52.55316 | -1.93898 | 1285 ft | 25 kts | 144° |
| 2026-04-30 21:45 | 52.55249 | -1.93824 | 1271 ft | 0 kts | 144° |
| 2026-04-30 21:46 | 52.55251 | -1.93823 | 1273 ft | 0 kts | 144° |
| 2026-04-30 21:46 | 52.55252 | -1.93823 | 1275 ft | 0 kts | 144° |
| 2026-04-30 21:46 | 52.55252 | -1.93824 | 1276 ft | 0 kts | 144° |
| 2026-04-30 21:46 | 52.55251 | -1.93824 | 1277 ft | 0 kts | 144° |
| 2026-04-30 21:48 | 52.55251 | -1.93825 | 1277 ft | 0 kts | 144° |
| 2026-04-30 21:49 | 52.55250 | -1.93825 | 1277 ft | 0 kts | 144° |
| 2026-04-30 21:58 | 52.55207 | -1.93772 | 1280 ft | 23 kts | 137° |
| 2026-04-30 21:58 | 52.55057 | -1.93402 | 1277 ft | 54 kts | 124° |
| 2026-04-30 21:59 | 52.54800 | -1.92734 | 1270 ft | 85 kts | 123° |
| 2026-04-30 21:59 | 52.54475 | -1.91885 | 1284 ft | 86 kts | 123° |
| 2026-04-30 21:59 | 52.54175 | -1.91036 | 1280 ft | 86 kts | 122° |
| 2026-04-30 22:00 | 52.53621 | -1.89287 | 1276 ft | 87 kts | 120° |
| 2026-04-30 22:00 | 52.52739 | -1.87941 | 1282 ft | 87 kts | 139° |
| 2026-04-30 22:00 | 52.52203 | -1.87494 | 1285 ft | 88 kts | 154° |
| 2026-04-30 22:01 | 52.51636 | -1.87122 | 1283 ft | 87 kts | 155° |
| 2026-04-30 22:01 | 52.51073 | -1.86757 | 1281 ft | 86 kts | 155° |
| 2026-04-30 22:01 | 52.50518 | -1.86392 | 1280 ft | 88 kts | 154° |
| 2026-04-30 22:01 | 52.49927 | -1.85980 | 1263 ft | 102 kts | 155° |
| 2026-04-30 22:02 | 52.49240 | -1.85497 | 1285 ft | 105 kts | 151° |
| 2026-04-30 22:02 | 52.48709 | -1.84675 | 1278 ft | 108 kts | 129° |
| 2026-04-30 22:02 | 52.48275 | -1.83692 | 1295 ft | 102 kts | 125° |
| 2026-04-30 22:02 | 52.47890 | -1.82856 | 1269 ft | 86 kts | 132° |
| 2026-04-30 22:03 | 52.47493 | -1.82079 | 1109 ft | 91 kts | 130° |
| 2026-04-30 22:03 | 52.47086 | -1.81289 | 1035 ft | 91 kts | 130° |
| 2026-04-30 22:03 | 52.46863 | -1.80396 | 1096 ft | 87 kts | 82° |
| 2026-04-30 22:03 | 52.47161 | -1.79553 | 1058 ft | 85 kts | 62° |
| 2026-04-30 22:04 | 52.47497 | -1.78761 | 990 ft | 83 kts | 66° |
| 2026-04-30 22:04 | 52.47661 | -1.77910 | 943 ft | 77 kts | 102° |
| 2026-04-30 22:04 | 52.46887 | -1.76496 | 561 ft | 80 kts | 144° |
| 2026-04-30 22:05 | 52.46458 | -1.76016 | 476 ft | 70 kts | 144° |
| 2026-04-30 22:05 | 52.46095 | -1.75610 | 410 ft | 58 kts | 145° |
| 2026-04-30 22:05 | 52.45792 | -1.75268 | 389 ft | 50 kts | 147° |
| 2026-04-30 22:05 | 52.45506 | -1.74946 | 364 ft | 47 kts | 144° |
| 2026-04-30 22:06 | 52.45304 | -1.74723 | 348 ft | 22 kts | 146° |
| 2026-04-30 22:06 | 52.45108 | -1.74719 | 337 ft | 12 kts | 193° |
| 2026-04-30 22:06 | 52.45020 | -1.74746 | 337 ft | 12 kts | 162° |
| 2026-04-30 22:07 | 52.44961 | -1.74718 | 344 ft | 8 kts | 123° |
| 2026-04-30 22:07 | 52.44944 | -1.74687 | 326 ft | 2 kts | 103° |
| 2026-04-30 22:07 | 52.44943 | -1.74684 | 322 ft | 0 kts | 101° |